Pagina principale
METAR-TAF:

METAR-TAF

Aeroporti :

Dire Daua, Etiopia

latitudine: 09-36N, longitudine: 041-52E, altezza: 1146 m

METAR: mancante

Ora: 23:01 (20:01 UTC)

Previsione

Il bollettino è stato emesso 4 ore e 31 minuti fa, alle 15:30 UTC
Previsione valida dal 20 alle 18 UTC al 21 alle 24 UTC
Vento 5 kt da sud
Visibilità 10 km o più
Nubi sparse ad un'altezza di 3000 ft
Nubi sparse ad un'altezza di 10000 ft

TAF: HADR 201530Z 2018/2124 17005KT 9999 SCT030 SCT100

Osservazioni e previsioni meteorologiche di più di 4000 aeroporti (messaggi METAR e TAF).

Le stazioni disponibili sono rappresentate dai dischi gialli e rossi sulla carta.

Puntare il mouse per vedere il nome della stazione.

Clicca sopra per visualizzare le osservazioni e previsioni meteorologiche.

Per cambiare la mappa : fare clic sui pulsanti verdi con una croce nera per ingrandire, il pulsante verde con un trattino per diminuire, o sulla freccia verde per le mappe adiacenti.


METAR-TAF: